sensor_id;sensor_type;location;lat;lon;timestamp;temperature;humidity
33645;DHT22;19986;48.190;16.366;2023-07-31T00:00:31;22.90;99.90
33645;DHT22;19986;48.190;16.366;2023-07-31T00:02:57;22.90;99.90
33645;DHT22;19986;48.190;16.366;2023-07-31T00:05:22;22.90;99.90
33645;DHT22;19986;48.190;16.366;2023-07-31T00:07:48;22.80;99.90
33645;DHT22;19986;48.190;16.366;2023-07-31T00:10:14;22.90;99.90
33645;DHT22;19986;48.190;16.366;2023-07-31T00:12:42;22.90;99.90
33645;DHT22;19986;48.190;16.366;2023-07-31T00:15:09;22.90;99.90
33645;DHT22;19986;48.190;16.366;2023-07-31T00:17:36;22.90;99.90
33645;DHT22;19986;48.190;16.366;2023-07-31T00:20:02;22.90;99.90
33645;DHT22;19986;48.190;16.366;2023-07-31T00:22:28;22.90;99.90
33645;DHT22;19986;48.190;16.366;2023-07-31T00:24:54;22.90;99.90
33645;DHT22;19986;48.190;16.366;2023-07-31T00:27:20;22.90;99.90
33645;DHT22;19986;48.190;16.366;2023-07-31T00:29:45;22.90;99.90
33645;DHT22;19986;48.190;16.366;2023-07-31T00:32:11;22.90;99.90
33645;DHT22;19986;48.190;16.366;2023-07-31T00:34:37;22.90;99.90
33645;DHT22;19986;48.190;16.366;2023-07-31T00:37:03;22.80;99.90
33645;DHT22;19986;48.190;16.366;2023-07-31T00:39:30;22.80;99.90
33645;DHT22;19986;48.190;16.366;2023-07-31T00:41:56;22.70;99.90
33645;DHT22;19986;48.190;16.366;2023-07-31T00:44:22;22.70;99.90
33645;DHT22;19986;48.190;16.366;2023-07-31T00:46:48;22.70;99.90
33645;DHT22;19986;48.190;16.366;2023-07-31T00:49:15;22.70;99.90
33645;DHT22;19986;48.190;16.366;2023-07-31T00:51:41;22.70;99.90
33645;DHT22;19986;48.190;16.366;2023-07-31T00:54:08;22.60;99.90
33645;DHT22;19986;48.190;16.366;2023-07-31T00:56:34;22.60;99.90
33645;DHT22;19986;48.190;16.366;2023-07-31T00:59:00;22.60;99.90
33645;DHT22;19986;48.190;16.366;2023-07-31T01:01:27;22.60;99.90
33645;DHT22;19986;48.190;16.366;2023-07-31T01:03:53;22.60;99.90
33645;DHT22;19986;48.190;16.366;2023-07-31T01:06:44;22.60;99.90
33645;DHT22;19986;48.190;16.366;2023-07-31T01:11:57;22.50;99.90
33645;DHT22;19986;48.190;16.366;2023-07-31T01:14:25;22.60;99.90
33645;DHT22;19986;48.190;16.366;2023-07-31T01:16:51;22.60;99.90
33645;DHT22;19986;48.190;16.366;2023-07-31T01:19:21;22.60;99.90
33645;DHT22;19986;48.190;16.366;2023-07-31T01:24:59;22.60;99.90
33645;DHT22;19986;48.190;16.366;2023-07-31T01:27:35;22.60;99.90
33645;DHT22;19986;48.190;16.366;2023-07-31T01:30:13;22.40;99.90
33645;DHT22;19986;48.190;16.366;2023-07-31T01:32:40;22.50;99.90
33645;DHT22;19986;48.190;16.366;2023-07-31T01:35:07;22.50;99.90
33645;DHT22;19986;48.190;16.366;2023-07-31T01:37:34;22.50;99.90
33645;DHT22;19986;48.190;16.366;2023-07-31T01:40:00;22.50;99.90
33645;DHT22;19986;48.190;16.366;2023-07-31T01:42:25;22.50;99.90
33645;DHT22;19986;48.190;16.366;2023-07-31T01:44:52;22.50;99.90
33645;DHT22;19986;48.190;16.366;2023-07-31T01:47:18;22.40;99.90
33645;DHT22;19986;48.190;16.366;2023-07-31T01:49:44;22.50;99.90
33645;DHT22;19986;48.190;16.366;2023-07-31T01:52:11;22.40;99.90
33645;DHT22;19986;48.190;16.366;2023-07-31T01:54:37;22.50;99.90
33645;DHT22;19986;48.190;16.366;2023-07-31T01:57:04;22.40;99.90
33645;DHT22;19986;48.190;16.366;2023-07-31T01:59:30;22.50;99.90
33645;DHT22;19986;48.190;16.366;2023-07-31T02:01:57;22.40;99.90
33645;DHT22;19986;48.190;16.366;2023-07-31T02:04:23;22.40;99.90
33645;DHT22;19986;48.190;16.366;2023-07-31T02:06:50;22.40;99.90
33645;DHT22;19986;48.190;16.366;2023-07-31T02:09:16;22.40;99.90
33645;DHT22;19986;48.190;16.366;2023-07-31T02:11:43;22.40;99.90
33645;DHT22;19986;48.190;16.366;2023-07-31T02:14:09;22.30;99.90
33645;DHT22;19986;48.190;16.366;2023-07-31T02:16:36;22.30;99.90
33645;DHT22;19986;48.190;16.366;2023-07-31T02:19:02;22.40;99.90
33645;DHT22;19986;48.190;16.366;2023-07-31T02:21:29;22.30;99.90
33645;DHT22;19986;48.190;16.366;2023-07-31T02:23:55;22.30;99.90
33645;DHT22;19986;48.190;16.366;2023-07-31T02:26:21;22.30;99.90
33645;DHT22;19986;48.190;16.366;2023-07-31T02:28:48;22.30;99.90
33645;DHT22;19986;48.190;16.366;2023-07-31T02:31:14;22.20;99.90
33645;DHT22;19986;48.190;16.366;2023-07-31T02:33:40;22.20;99.90
33645;DHT22;19986;48.190;16.366;2023-07-31T02:36:07;22.10;99.90
33645;DHT22;19986;48.190;16.366;2023-07-31T02:38:32;22.10;99.90
33645;DHT22;19986;48.190;16.366;2023-07-31T02:40:59;22.10;99.90
33645;DHT22;19986;48.190;16.366;2023-07-31T02:43:25;22.10;99.90
33645;DHT22;19986;48.190;16.366;2023-07-31T02:45:52;22.10;99.90
33645;DHT22;19986;48.190;16.366;2023-07-31T02:48:18;22.10;99.90
33645;DHT22;19986;48.190;16.366;2023-07-31T02:50:47;22.10;99.90
33645;DHT22;19986;48.190;16.366;2023-07-31T02:53:13;22.10;99.90
33645;DHT22;19986;48.190;16.366;2023-07-31T02:55:40;22.10;99.90
33645;DHT22;19986;48.190;16.366;2023-07-31T02:58:06;22.10;99.90
33645;DHT22;19986;48.190;16.366;2023-07-31T03:00:33;22.10;99.90
33645;DHT22;19986;48.190;16.366;2023-07-31T03:02:59;22.10;99.90
33645;DHT22;19986;48.190;16.366;2023-07-31T03:05:26;22.10;99.90
33645;DHT22;19986;48.190;16.366;2023-07-31T03:07:52;22.00;99.90
33645;DHT22;19986;48.190;16.366;2023-07-31T03:10:18;22.00;99.90
33645;DHT22;19986;48.190;16.366;2023-07-31T03:12:47;22.10;99.90
33645;DHT22;19986;48.190;16.366;2023-07-31T03:15:13;22.00;99.90
33645;DHT22;19986;48.190;16.366;2023-07-31T03:17:39;22.00;99.90
33645;DHT22;19986;48.190;16.366;2023-07-31T03:20:06;22.00;99.90
33645;DHT22;19986;48.190;16.366;2023-07-31T03:22:32;22.00;99.90
33645;DHT22;19986;48.190;16.366;2023-07-31T03:24:58;22.00;99.90
33645;DHT22;19986;48.190;16.366;2023-07-31T03:27:23;22.00;99.90
33645;DHT22;19986;48.190;16.366;2023-07-31T03:29:49;22.00;99.90
33645;DHT22;19986;48.190;16.366;2023-07-31T03:32:17;22.00;99.90
33645;DHT22;19986;48.190;16.366;2023-07-31T03:34:42;22.00;99.90
33645;DHT22;19986;48.190;16.366;2023-07-31T03:37:08;22.00;99.90
33645;DHT22;19986;48.190;16.366;2023-07-31T03:39:35;22.10;99.90
33645;DHT22;19986;48.190;16.366;2023-07-31T03:42:01;22.00;99.90
33645;DHT22;19986;48.190;16.366;2023-07-31T03:44:26;22.00;99.90
33645;DHT22;19986;48.190;16.366;2023-07-31T03:46:52;21.90;99.90
33645;DHT22;19986;48.190;16.366;2023-07-31T03:49:18;22.00;99.90
33645;DHT22;19986;48.190;16.366;2023-07-31T03:51:44;21.90;99.90
33645;DHT22;19986;48.190;16.366;2023-07-31T03:54:10;22.00;99.90
33645;DHT22;19986;48.190;16.366;2023-07-31T03:56:36;21.90;99.90
33645;DHT22;19986;48.190;16.366;2023-07-31T03:59:03;21.90;99.90
33645;DHT22;19986;48.190;16.366;2023-07-31T04:01:29;22.00;99.90
33645;DHT22;19986;48.190;16.366;2023-07-31T04:03:55;22.00;99.90
33645;DHT22;19986;48.190;16.366;2023-07-31T04:06:21;22.10;99.90
33645;DHT22;19986;48.190;16.366;2023-07-31T04:08:47;22.10;99.90
33645;DHT22;19986;48.190;16.366;2023-07-31T04:11:13;22.20;99.90
33645;DHT22;19986;48.190;16.366;2023-07-31T04:13:39;22.20;99.90
33645;DHT22;19986;48.190;16.366;2023-07-31T04:16:05;22.30;99.90
33645;DHT22;19986;48.190;16.366;2023-07-31T04:18:31;22.30;99.90
33645;DHT22;19986;48.190;16.366;2023-07-31T04:20:58;22.40;99.90
33645;DHT22;19986;48.190;16.366;2023-07-31T04:23:25;22.40;99.90
33645;DHT22;19986;48.190;16.366;2023-07-31T04:25:51;22.50;99.90
33645;DHT22;19986;48.190;16.366;2023-07-31T04:28:16;22.40;99.90
33645;DHT22;19986;48.190;16.366;2023-07-31T04:30:42;22.40;99.90
33645;DHT22;19986;48.190;16.366;2023-07-31T04:33:08;22.40;99.90
33645;DHT22;19986;48.190;16.366;2023-07-31T04:35:34;22.50;99.90
33645;DHT22;19986;48.190;16.366;2023-07-31T04:38:00;22.60;99.90
33645;DHT22;19986;48.190;16.366;2023-07-31T04:40:26;22.70;99.90
33645;DHT22;19986;48.190;16.366;2023-07-31T04:42:51;22.70;99.90
33645;DHT22;19986;48.190;16.366;2023-07-31T04:45:17;22.70;99.90
33645;DHT22;19986;48.190;16.366;2023-07-31T04:47:43;22.70;99.90
33645;DHT22;19986;48.190;16.366;2023-07-31T04:50:09;22.60;99.90
33645;DHT22;19986;48.190;16.366;2023-07-31T04:52:35;22.60;99.90
33645;DHT22;19986;48.190;16.366;2023-07-31T04:55:01;22.70;99.90
33645;DHT22;19986;48.190;16.366;2023-07-31T04:57:27;22.70;99.90
33645;DHT22;19986;48.190;16.366;2023-07-31T04:59:52;22.80;99.90
33645;DHT22;19986;48.190;16.366;2023-07-31T05:02:18;22.90;99.90
33645;DHT22;19986;48.190;16.366;2023-07-31T05:04:44;23.10;99.90
33645;DHT22;19986;48.190;16.366;2023-07-31T05:07:10;23.20;99.90
33645;DHT22;19986;48.190;16.366;2023-07-31T05:09:36;23.20;99.90
33645;DHT22;19986;48.190;16.366;2023-07-31T05:12:02;23.30;99.90
33645;DHT22;19986;48.190;16.366;2023-07-31T05:14:27;23.30;99.90
33645;DHT22;19986;48.190;16.366;2023-07-31T05:16:53;23.50;99.90
33645;DHT22;19986;48.190;16.366;2023-07-31T05:19:19;23.60;99.90
33645;DHT22;19986;48.190;16.366;2023-07-31T05:21:45;23.70;99.90
33645;DHT22;19986;48.190;16.366;2023-07-31T05:24:11;23.70;99.90
33645;DHT22;19986;48.190;16.366;2023-07-31T05:26:37;23.90;99.90
33645;DHT22;19986;48.190;16.366;2023-07-31T05:29:03;24.00;99.90
33645;DHT22;19986;48.190;16.366;2023-07-31T05:31:29;24.00;99.90
33645;DHT22;19986;48.190;16.366;2023-07-31T05:33:55;23.80;99.90
33645;DHT22;19986;48.190;16.366;2023-07-31T05:36:21;23.60;99.90
33645;DHT22;19986;48.190;16.366;2023-07-31T05:38:46;23.50;99.90
33645;DHT22;19986;48.190;16.366;2023-07-31T05:41:12;23.40;99.90
33645;DHT22;19986;48.190;16.366;2023-07-31T05:43:38;23.40;99.90
33645;DHT22;19986;48.190;16.366;2023-07-31T05:46:04;23.40;99.90
33645;DHT22;19986;48.190;16.366;2023-07-31T05:48:30;23.50;99.90
33645;DHT22;19986;48.190;16.366;2023-07-31T05:50:56;23.50;99.90
33645;DHT22;19986;48.190;16.366;2023-07-31T05:53:22;23.50;99.90
33645;DHT22;19986;48.190;16.366;2023-07-31T05:55:48;23.60;99.90
33645;DHT22;19986;48.190;16.366;2023-07-31T05:58:13;23.60;99.90
33645;DHT22;19986;48.190;16.366;2023-07-31T06:00:39;23.70;99.90
33645;DHT22;19986;48.190;16.366;2023-07-31T06:03:06;23.80;99.90
33645;DHT22;19986;48.190;16.366;2023-07-31T06:05:32;23.80;99.90
33645;DHT22;19986;48.190;16.366;2023-07-31T06:07:58;24.00;99.90
33645;DHT22;19986;48.190;16.366;2023-07-31T06:10:24;24.10;99.90
33645;DHT22;19986;48.190;16.366;2023-07-31T06:12:50;24.30;99.90
33645;DHT22;19986;48.190;16.366;2023-07-31T06:15:16;24.40;99.90
33645;DHT22;19986;48.190;16.366;2023-07-31T06:17:43;24.50;99.90
33645;DHT22;19986;48.190;16.366;2023-07-31T06:20:09;24.70;99.90
33645;DHT22;19986;48.190;16.366;2023-07-31T06:22:35;24.80;99.90
33645;DHT22;19986;48.190;16.366;2023-07-31T06:25:01;24.70;99.90
33645;DHT22;19986;48.190;16.366;2023-07-31T06:27:27;24.70;99.90
33645;DHT22;19986;48.190;16.366;2023-07-31T06:29:53;24.80;99.90
33645;DHT22;19986;48.190;16.366;2023-07-31T06:32:18;24.90;99.90
33645;DHT22;19986;48.190;16.366;2023-07-31T06:34:44;24.90;99.90
33645;DHT22;19986;48.190;16.366;2023-07-31T06:37:10;25.10;99.90
33645;DHT22;19986;48.190;16.366;2023-07-31T06:39:36;25.10;99.50
33645;DHT22;19986;48.190;16.366;2023-07-31T06:42:03;25.10;98.90
33645;DHT22;19986;48.190;16.366;2023-07-31T06:44:29;25.10;98.60
33645;DHT22;19986;48.190;16.366;2023-07-31T06:46:55;25.00;98.50
33645;DHT22;19986;48.190;16.366;2023-07-31T06:49:21;24.80;98.10
33645;DHT22;19986;48.190;16.366;2023-07-31T06:51:47;24.70;98.30
33645;DHT22;19986;48.190;16.366;2023-07-31T06:54:13;24.60;98.40
33645;DHT22;19986;48.190;16.366;2023-07-31T06:56:38;24.50;98.40
33645;DHT22;19986;48.190;16.366;2023-07-31T06:59:04;24.50;98.50
33645;DHT22;19986;48.190;16.366;2023-07-31T07:01:30;24.50;98.10
33645;DHT22;19986;48.190;16.366;2023-07-31T07:03:56;24.60;97.60
33645;DHT22;19986;48.190;16.366;2023-07-31T07:06:22;24.60;96.60
33645;DHT22;19986;48.190;16.366;2023-07-31T07:08:48;24.70;96.00
33645;DHT22;19986;48.190;16.366;2023-07-31T07:11:14;24.60;96.00
33645;DHT22;19986;48.190;16.366;2023-07-31T07:13:40;24.70;95.60
33645;DHT22;19986;48.190;16.366;2023-07-31T07:16:06;24.80;95.10
33645;DHT22;19986;48.190;16.366;2023-07-31T07:18:32;24.80;94.60
33645;DHT22;19986;48.190;16.366;2023-07-31T07:20:58;24.80;94.00
33645;DHT22;19986;48.190;16.366;2023-07-31T07:23:24;24.90;93.90
33645;DHT22;19986;48.190;16.366;2023-07-31T07:25:50;25.00;94.00
33645;DHT22;19986;48.190;16.366;2023-07-31T07:28:17;25.10;93.60
33645;DHT22;19986;48.190;16.366;2023-07-31T07:30:42;25.20;93.50
33645;DHT22;19986;48.190;16.366;2023-07-31T07:33:08;25.40;92.50
33645;DHT22;19986;48.190;16.366;2023-07-31T07:35:34;25.50;92.00
33645;DHT22;19986;48.190;16.366;2023-07-31T07:38:04;25.60;91.80
33645;DHT22;19986;48.190;16.366;2023-07-31T07:40:30;25.80;91.80
33645;DHT22;19986;48.190;16.366;2023-07-31T07:42:56;25.90;91.40
33645;DHT22;19986;48.190;16.366;2023-07-31T07:45:22;26.00;91.00
33645;DHT22;19986;48.190;16.366;2023-07-31T07:47:47;26.00;91.30
33645;DHT22;19986;48.190;16.366;2023-07-31T07:50:13;26.10;91.40
33645;DHT22;19986;48.190;16.366;2023-07-31T07:52:39;26.10;91.60
33645;DHT22;19986;48.190;16.366;2023-07-31T07:55:05;26.10;90.90
33645;DHT22;19986;48.190;16.366;2023-07-31T07:57:31;26.10;90.90
33645;DHT22;19986;48.190;16.366;2023-07-31T07:59:56;26.10;90.90
33645;DHT22;19986;48.190;16.366;2023-07-31T08:02:22;26.00;90.30
33645;DHT22;19986;48.190;16.366;2023-07-31T08:04:48;26.20;90.70
33645;DHT22;19986;48.190;16.366;2023-07-31T08:07:14;26.10;88.70
33645;DHT22;19986;48.190;16.366;2023-07-31T08:09:40;26.00;89.40
33645;DHT22;19986;48.190;16.366;2023-07-31T08:12:07;25.80;90.20
33645;DHT22;19986;48.190;16.366;2023-07-31T08:14:32;25.80;90.30
33645;DHT22;19986;48.190;16.366;2023-07-31T08:16:58;25.80;90.50
33645;DHT22;19986;48.190;16.366;2023-07-31T08:19:24;25.60;90.60
33645;DHT22;19986;48.190;16.366;2023-07-31T08:21:50;25.50;90.70
33645;DHT22;19986;48.190;16.366;2023-07-31T08:24:16;25.40;90.70
33645;DHT22;19986;48.190;16.366;2023-07-31T08:26:42;25.40;90.90
33645;DHT22;19986;48.190;16.366;2023-07-31T08:29:08;25.30;90.70
33645;DHT22;19986;48.190;16.366;2023-07-31T08:31:34;25.30;90.90
33645;DHT22;19986;48.190;16.366;2023-07-31T08:34:00;25.30;91.00
33645;DHT22;19986;48.190;16.366;2023-07-31T08:36:27;25.30;91.20
33645;DHT22;19986;48.190;16.366;2023-07-31T08:38:52;25.40;91.00
33645;DHT22;19986;48.190;16.366;2023-07-31T08:41:18;25.40;90.80
33645;DHT22;19986;48.190;16.366;2023-07-31T08:43:46;25.50;90.40
33645;DHT22;19986;48.190;16.366;2023-07-31T08:46:12;25.60;90.50
33645;DHT22;19986;48.190;16.366;2023-07-31T08:48:41;25.70;90.00
33645;DHT22;19986;48.190;16.366;2023-07-31T08:51:08;25.70;89.50
33645;DHT22;19986;48.190;16.366;2023-07-31T08:53:35;25.90;87.70
33645;DHT22;19986;48.190;16.366;2023-07-31T08:56:01;25.80;88.20
33645;DHT22;19986;48.190;16.366;2023-07-31T08:58:32;25.80;88.40
33645;DHT22;19986;48.190;16.366;2023-07-31T09:01:04;25.80;88.70
33645;DHT22;19986;48.190;16.366;2023-07-31T09:03:33;25.80;89.30
33645;DHT22;19986;48.190;16.366;2023-07-31T09:06:00;26.00;88.70
33645;DHT22;19986;48.190;16.366;2023-07-31T09:08:30;26.10;88.50
33645;DHT22;19986;48.190;16.366;2023-07-31T09:10:59;26.20;88.00
33645;DHT22;19986;48.190;16.366;2023-07-31T09:13:27;26.50;88.20
33645;DHT22;19986;48.190;16.366;2023-07-31T09:15:53;26.80;87.40
33645;DHT22;19986;48.190;16.366;2023-07-31T09:18:19;27.20;87.20
33645;DHT22;19986;48.190;16.366;2023-07-31T09:21:04;27.60;85.70
33645;DHT22;19986;48.190;16.366;2023-07-31T09:23:45;28.00;85.90
33645;DHT22;19986;48.190;16.366;2023-07-31T09:26:11;28.60;85.20
33645;DHT22;19986;48.190;16.366;2023-07-31T09:28:44;29.30;85.00
33645;DHT22;19986;48.190;16.366;2023-07-31T09:31:10;30.00;83.20
33645;DHT22;19986;48.190;16.366;2023-07-31T09:33:54;30.90;81.40
33645;DHT22;19986;48.190;16.366;2023-07-31T09:36:21;32.50;77.30
33645;DHT22;19986;48.190;16.366;2023-07-31T09:38:47;34.20;75.40
33645;DHT22;19986;48.190;16.366;2023-07-31T09:41:13;35.40;72.30
33645;DHT22;19986;48.190;16.366;2023-07-31T09:43:39;36.30;70.70
33645;DHT22;19986;48.190;16.366;2023-07-31T09:46:13;36.10;68.20
33645;DHT22;19986;48.190;16.366;2023-07-31T09:48:39;35.10;69.40
33645;DHT22;19986;48.190;16.366;2023-07-31T09:51:05;35.40;70.20
33645;DHT22;19986;48.190;16.366;2023-07-31T09:53:32;36.50;67.90
33645;DHT22;19986;48.190;16.366;2023-07-31T09:55:59;37.20;65.00
33645;DHT22;19986;48.190;16.366;2023-07-31T09:58:28;37.40;64.70
33645;DHT22;19986;48.190;16.366;2023-07-31T10:00:55;38.00;64.30
33645;DHT22;19986;48.190;16.366;2023-07-31T10:03:23;38.30;61.80
33645;DHT22;19986;48.190;16.366;2023-07-31T10:05:50;38.30;61.70
33645;DHT22;19986;48.190;16.366;2023-07-31T10:08:22;38.60;62.30
33645;DHT22;19986;48.190;16.366;2023-07-31T10:10:49;38.90;61.00
33645;DHT22;19986;48.190;16.366;2023-07-31T10:13:15;39.10;61.10
33645;DHT22;19986;48.190;16.366;2023-07-31T10:15:42;39.40;60.20
33645;DHT22;19986;48.190;16.366;2023-07-31T10:18:09;39.50;59.20
33645;DHT22;19986;48.190;16.366;2023-07-31T10:20:36;39.30;59.50
33645;DHT22;19986;48.190;16.366;2023-07-31T10:23:03;39.70;58.70
33645;DHT22;19986;48.190;16.366;2023-07-31T10:25:29;38.90;59.30
33645;DHT22;19986;48.190;16.366;2023-07-31T10:27:57;38.70;60.50
33645;DHT22;19986;48.190;16.366;2023-07-31T10:30:27;39.00;60.00
33645;DHT22;19986;48.190;16.366;2023-07-31T10:32:55;38.90;59.30
33645;DHT22;19986;48.190;16.366;2023-07-31T10:35:22;39.20;58.40
33645;DHT22;19986;48.190;16.366;2023-07-31T10:37:48;39.40;57.80
33645;DHT22;19986;48.190;16.366;2023-07-31T10:40:32;39.80;57.90
33645;DHT22;19986;48.190;16.366;2023-07-31T10:42:58;40.30;58.00
33645;DHT22;19986;48.190;16.366;2023-07-31T10:45:33;40.60;58.30
33645;DHT22;19986;48.190;16.366;2023-07-31T10:48:01;40.70;58.00
33645;DHT22;19986;48.190;16.366;2023-07-31T10:50:28;40.90;58.00
33645;DHT22;19986;48.190;16.366;2023-07-31T10:52:56;40.80;57.40
33645;DHT22;19986;48.190;16.366;2023-07-31T10:55:42;40.90;56.80
33645;DHT22;19986;48.190;16.366;2023-07-31T10:58:11;40.80;55.80
33645;DHT22;19986;48.190;16.366;2023-07-31T11:00:39;40.30;56.40
33645;DHT22;19986;48.190;16.366;2023-07-31T11:03:09;39.90;56.70
33645;DHT22;19986;48.190;16.366;2023-07-31T11:05:46;40.00;56.80
33645;DHT22;19986;48.190;16.366;2023-07-31T11:10:44;40.20;57.50
33645;DHT22;19986;48.190;16.366;2023-07-31T11:13:11;40.60;57.80
33645;DHT22;19986;48.190;16.366;2023-07-31T11:15:37;40.30;55.80
33645;DHT22;19986;48.190;16.366;2023-07-31T11:18:03;39.60;56.00
33645;DHT22;19986;48.190;16.366;2023-07-31T11:20:32;39.10;56.10
33645;DHT22;19986;48.190;16.366;2023-07-31T11:23:02;38.90;57.30
33645;DHT22;19986;48.190;16.366;2023-07-31T11:25:29;39.20;57.10
33645;DHT22;19986;48.190;16.366;2023-07-31T11:27:56;39.20;57.00
33645;DHT22;19986;48.190;16.366;2023-07-31T11:30:22;39.10;57.10
33645;DHT22;19986;48.190;16.366;2023-07-31T11:32:49;39.00;57.00
33645;DHT22;19986;48.190;16.366;2023-07-31T11:35:15;39.20;56.90
33645;DHT22;19986;48.190;16.366;2023-07-31T11:37:42;39.50;57.30
33645;DHT22;19986;48.190;16.366;2023-07-31T11:40:09;39.50;57.20
33645;DHT22;19986;48.190;16.366;2023-07-31T11:42:35;39.20;57.00
33645;DHT22;19986;48.190;16.366;2023-07-31T11:45:08;39.00;57.30
33645;DHT22;19986;48.190;16.366;2023-07-31T11:47:37;39.10;57.00
33645;DHT22;19986;48.190;16.366;2023-07-31T11:50:06;39.10;57.00
33645;DHT22;19986;48.190;16.366;2023-07-31T11:52:41;39.10;57.40
33645;DHT22;19986;48.190;16.366;2023-07-31T11:55:09;38.90;57.30
33645;DHT22;19986;48.190;16.366;2023-07-31T11:57:37;38.50;57.60
33645;DHT22;19986;48.190;16.366;2023-07-31T12:00:07;38.30;56.90
33645;DHT22;19986;48.190;16.366;2023-07-31T12:02:34;38.00;56.70
33645;DHT22;19986;48.190;16.366;2023-07-31T12:05:00;37.40;57.80
33645;DHT22;19986;48.190;16.366;2023-07-31T12:07:25;36.60;58.60
33645;DHT22;19986;48.190;16.366;2023-07-31T12:09:55;36.40;58.60
33645;DHT22;19986;48.190;16.366;2023-07-31T12:12:23;36.40;58.80
33645;DHT22;19986;48.190;16.366;2023-07-31T12:14:49;36.70;58.60
33645;DHT22;19986;48.190;16.366;2023-07-31T12:17:17;36.70;58.60
33645;DHT22;19986;48.190;16.366;2023-07-31T12:19:44;36.50;58.80
33645;DHT22;19986;48.190;16.366;2023-07-31T12:22:16;36.50;59.40
33645;DHT22;19986;48.190;16.366;2023-07-31T12:24:43;36.60;59.50
33645;DHT22;19986;48.190;16.366;2023-07-31T12:27:13;36.30;59.90
33645;DHT22;19986;48.190;16.366;2023-07-31T12:29:39;35.80;60.20
33645;DHT22;19986;48.190;16.366;2023-07-31T12:32:20;35.90;60.50
33645;DHT22;19986;48.190;16.366;2023-07-31T12:34:45;36.00;59.90
33645;DHT22;19986;48.190;16.366;2023-07-31T12:37:12;36.00;59.60
33645;DHT22;19986;48.190;16.366;2023-07-31T12:39:38;35.70;58.90
33645;DHT22;19986;48.190;16.366;2023-07-31T12:42:04;35.10;59.40
33645;DHT22;19986;48.190;16.366;2023-07-31T12:44:30;35.10;59.70
33645;DHT22;19986;48.190;16.366;2023-07-31T12:46:56;35.00;60.10
33645;DHT22;19986;48.190;16.366;2023-07-31T12:49:21;34.90;59.90
33645;DHT22;19986;48.190;16.366;2023-07-31T12:51:47;34.90;59.70
33645;DHT22;19986;48.190;16.366;2023-07-31T12:54:13;34.50;59.80
33645;DHT22;19986;48.190;16.366;2023-07-31T12:56:39;34.40;59.90
33645;DHT22;19986;48.190;16.366;2023-07-31T12:59:05;34.10;60.40
33645;DHT22;19986;48.190;16.366;2023-07-31T13:01:31;33.90;61.00
33645;DHT22;19986;48.190;16.366;2023-07-31T13:03:57;33.60;62.00
33645;DHT22;19986;48.190;16.366;2023-07-31T13:06:25;33.40;62.60
33645;DHT22;19986;48.190;16.366;2023-07-31T13:08:51;33.10;63.20
33645;DHT22;19986;48.190;16.366;2023-07-31T13:11:18;32.80;63.80
33645;DHT22;19986;48.190;16.366;2023-07-31T13:13:46;32.60;64.50
33645;DHT22;19986;48.190;16.366;2023-07-31T13:16:12;32.60;64.90
33645;DHT22;19986;48.190;16.366;2023-07-31T13:18:38;32.50;64.40
33645;DHT22;19986;48.190;16.366;2023-07-31T13:21:04;32.40;65.10
33645;DHT22;19986;48.190;16.366;2023-07-31T13:23:29;32.20;65.40
33645;DHT22;19986;48.190;16.366;2023-07-31T13:25:55;32.20;66.20
33645;DHT22;19986;48.190;16.366;2023-07-31T13:28:21;32.00;65.80
33645;DHT22;19986;48.190;16.366;2023-07-31T13:30:47;32.10;66.30
33645;DHT22;19986;48.190;16.366;2023-07-31T13:33:13;32.10;65.70
33645;DHT22;19986;48.190;16.366;2023-07-31T13:35:39;32.10;65.20
33645;DHT22;19986;48.190;16.366;2023-07-31T13:38:05;32.20;64.90
33645;DHT22;19986;48.190;16.366;2023-07-31T13:40:31;32.30;64.70
33645;DHT22;19986;48.190;16.366;2023-07-31T13:42:57;32.30;64.40
33645;DHT22;19986;48.190;16.366;2023-07-31T13:45:22;32.20;64.80
33645;DHT22;19986;48.190;16.366;2023-07-31T13:47:50;32.30;63.80
33645;DHT22;19986;48.190;16.366;2023-07-31T13:50:16;32.30;63.20
33645;DHT22;19986;48.190;16.366;2023-07-31T13:52:45;32.10;63.00
33645;DHT22;19986;48.190;16.366;2023-07-31T13:55:11;32.10;63.40
33645;DHT22;19986;48.190;16.366;2023-07-31T13:57:37;32.10;63.90
33645;DHT22;19986;48.190;16.366;2023-07-31T14:00:03;32.10;63.40
33645;DHT22;19986;48.190;16.366;2023-07-31T14:02:30;32.30;64.00
33645;DHT22;19986;48.190;16.366;2023-07-31T14:04:58;32.30;64.00
33645;DHT22;19986;48.190;16.366;2023-07-31T14:07:24;32.30;64.00
33645;DHT22;19986;48.190;16.366;2023-07-31T14:09:50;32.10;63.80
33645;DHT22;19986;48.190;16.366;2023-07-31T14:12:16;32.00;64.40
33645;DHT22;19986;48.190;16.366;2023-07-31T14:14:41;31.90;64.20
33645;DHT22;19986;48.190;16.366;2023-07-31T14:17:07;31.80;64.50
33645;DHT22;19986;48.190;16.366;2023-07-31T14:19:33;31.60;64.30
33645;DHT22;19986;48.190;16.366;2023-07-31T14:21:59;31.60;64.40
33645;DHT22;19986;48.190;16.366;2023-07-31T14:24:25;31.60;64.50
33645;DHT22;19986;48.190;16.366;2023-07-31T14:26:51;31.70;65.00
33645;DHT22;19986;48.190;16.366;2023-07-31T14:29:17;31.50;65.10
33645;DHT22;19986;48.190;16.366;2023-07-31T14:31:42;31.30;65.20
33645;DHT22;19986;48.190;16.366;2023-07-31T14:34:08;31.30;64.80
33645;DHT22;19986;48.190;16.366;2023-07-31T14:36:34;31.20;65.50
33645;DHT22;19986;48.190;16.366;2023-07-31T14:39:00;31.30;65.00
33645;DHT22;19986;48.190;16.366;2023-07-31T14:41:26;31.40;64.80
33645;DHT22;19986;48.190;16.366;2023-07-31T14:43:51;31.40;64.70
33645;DHT22;19986;48.190;16.366;2023-07-31T14:46:17;31.40;64.70
33645;DHT22;19986;48.190;16.366;2023-07-31T14:48:43;31.40;65.10
33645;DHT22;19986;48.190;16.366;2023-07-31T14:51:09;31.60;65.10
33645;DHT22;19986;48.190;16.366;2023-07-31T14:53:35;31.70;64.70
33645;DHT22;19986;48.190;16.366;2023-07-31T14:56:00;31.90;64.40
33645;DHT22;19986;48.190;16.366;2023-07-31T14:58:26;31.90;64.00
33645;DHT22;19986;48.190;16.366;2023-07-31T15:00:52;31.80;64.50
33645;DHT22;19986;48.190;16.366;2023-07-31T15:03:18;31.90;64.20
33645;DHT22;19986;48.190;16.366;2023-07-31T15:05:44;31.70;64.90
33645;DHT22;19986;48.190;16.366;2023-07-31T15:08:10;31.60;64.80
33645;DHT22;19986;48.190;16.366;2023-07-31T15:10:36;31.50;65.10
33645;DHT22;19986;48.190;16.366;2023-07-31T15:13:01;31.70;64.70
33645;DHT22;19986;48.190;16.366;2023-07-31T15:15:28;31.80;65.00
33645;DHT22;19986;48.190;16.366;2023-07-31T15:17:53;31.90;65.20
33645;DHT22;19986;48.190;16.366;2023-07-31T15:20:20;31.90;64.80